Time;durP1;ratioP1;P1;durP2;ratioP2;P2;SDS_P1;SDS_P2;PMS_P1;PMS_P2;Temp;Humidity;BMP_temperature;BMP_pressure;BME280_temperature;BME280_humidity;BME280_pressure;Samples;Min_cycle;Max_cycle;Signal;HPM_P1;HPM_P2
2022/10/05 00:02:22;;;;;;;2.47;2.00;;;;;;;12.77;100.00;99827.08;1651095;84;21557;-60
2022/10/05 00:04:53;;;;;;;2.92;2.22;;;;;;;12.81;100.00;99832.63;1660304;84;21474;-60
2022/10/05 00:07:23;;;;;;;2.00;1.82;;;;;;;12.82;100.00;99828.56;1656609;84;21042;-59
2022/10/05 00:09:58;;;;;;;1.90;1.80;;;;;;;12.78;100.00;99834.92;1660609;84;21735;-61
2022/10/05 00:12:28;;;;;;;2.33;2.12;;;;;;;12.78;100.00;99838.04;1651895;84;21431;-59
2022/10/05 00:14:59;;;;;;;2.47;1.60;;;;;;;12.77;100.00;99833.67;1657215;83;21495;-59
2022/10/05 00:17:28;;;;;;;2.33;1.98;;;;;;;12.79;100.00;99830.50;1657893;84;20998;-59
2022/10/05 00:19:55;;;;;;;4.50;2.30;;;;;;;12.85;100.00;99840.30;1656724;85;21498;-60
2022/10/05 00:22:32;;;;;;;4.45;2.30;;;;;;;12.83;100.00;99846.12;1652276;84;21764;-60
2022/10/05 00:25:01;;;;;;;2.25;2.05;;;;;;;12.92;100.00;99846.14;1656760;84;21562;-59
2022/10/05 00:27:33;;;;;;;2.87;1.92;;;;;;;12.93;100.00;99850.48;1656763;84;21461;-59
2022/10/05 00:30:12;;;;;;;2.65;2.08;;;;;;;12.91;100.00;99856.77;1655374;84;21557;-60
2022/10/05 00:32:40;;;;;;;2.47;2.10;;;;;;;12.95;100.00;99851.73;1639185;85;21454;-59
2022/10/05 00:35:08;;;;;;;4.22;2.08;;;;;;;12.92;100.00;99851.42;1656910;86;21919;-59
2022/10/05 00:37:34;;;;;;;3.90;1.75;;;;;;;12.96;100.00;99859.57;1661093;84;21580;-59
2022/10/05 00:40:02;;;;;;;2.47;1.98;;;;;;;12.92;100.00;99865.94;1658215;84;21526;-59
2022/10/05 00:42:38;;;;;;;;;;;;;;;12.95;100.00;99862.28;1637745;86;20993;-59
2022/10/05 00:45:15;;;;;;;1.92;1.72;;;;;;;12.97;100.00;99861.73;1653726;86;20430;-59
2022/10/05 00:48:06;;;;;;;2.17;1.98;;;;;;;13.01;100.00;99860.66;1658389;85;21792;-60
2022/10/05 00:50:53;;;;;;;5.55;2.37;;;;;;;12.97;100.00;99861.73;1657923;85;21555;-60
2022/10/05 00:53:41;;;;;;;3.87;2.40;;;;;;;12.78;100.00;99871.02;1659690;84;21521;-59
2022/10/05 00:56:19;;;;;;;4.53;2.35;;;;;;;12.73;100.00;99876.97;1656147;85;21529;-60
2022/10/05 00:59:16;;;;;;;3.10;2.33;;;;;;;12.65;100.00;99883.94;1663489;83;21493;-59
2022/10/05 01:02:14;;;;;;;5.95;2.17;;;;;;;12.74;100.00;99892.73;1656455;84;21498;-61
2022/10/05 01:04:55;;;;;;;3.35;1.95;;;;;;;12.68;100.00;99894.35;1632916;85;21545;-59
2022/10/05 01:08:01;;;;;;;2.52;2.00;;;;;;;12.68;100.00;99901.39;1661879;84;21040;-60
2022/10/05 01:10:39;;;;;;;3.02;2.05;;;;;;;12.61;100.00;99909.59;1661059;84;21478;-61
2022/10/05 01:13:33;;;;;;;3.30;2.02;;;;;;;12.65;100.00;99903.72;1661753;84;21510;-61
2022/10/05 01:16:19;;;;;;;4.72;2.00;;;;;;;12.72;100.00;99912.22;1656188;85;22131;-60
2022/10/05 01:19:16;;;;;;;2.52;1.85;;;;;;;12.70;100.00;99914.08;1661211;84;21097;-59
2022/10/05 01:21:53;;;;;;;3.60;1.67;;;;;;;12.66;100.00;99927.39;1647246;84;21600;-59
2022/10/05 01:24:58;;;;;;;1.87;1.77;;;;;;;12.58;100.00;99927.35;1645692;85;21454;-62
2022/10/05 01:27:56;;;;;;;2.80;1.90;;;;;;;12.57;100.00;99930.93;1630764;85;21471;-60
2022/10/05 01:30:23;;;;;;;2.12;1.80;;;;;;;12.54;100.00;99938.50;1655351;84;22045;-61
2022/10/05 01:33:15;;;;;;;5.80;1.90;;;;;;;12.59;100.00;99943.58;1668184;84;21506;-61
2022/10/05 01:35:57;;;;;;;4.03;1.90;;;;;;;12.66;100.00;99946.34;1634967;85;21608;-60
2022/10/05 01:38:48;;;;;;;5.80;1.90;;;;;;;12.67;100.00;99941.44;1650807;84;21477;-61
2022/10/05 01:41:49;;;;;;;5.72;2.33;;;;;;;12.57;100.00;99942.80;1659022;84;21068;-59
2022/10/05 01:44:23;;;;;;;4.37;1.80;;;;;;;12.62;100.00;99943.42;1662764;84;22029;-60
2022/10/05 01:47:11;;;;;;;3.20;2.45;;;;;;;12.61;100.00;99947.84;1661221;84;21028;-61
2022/10/05 01:50:05;;;;;;;4.83;2.58;;;;;;;12.63;100.00;99956.55;1650552;85;21550;-60
2022/10/05 01:52:58;;;;;;;1.98;1.80;;;;;;;12.63;100.00;99958.34;1641639;84;21541;-60
2022/10/05 01:55:57;;;;;;;6.17;2.10;;;;;;;12.57;100.00;99961.27;1660574;84;21478;-60
2022/10/05 01:58:52;;;;;;;2.50;1.72;;;;;;;12.55;100.00;99966.61;1630668;86;21899;-59
2022/10/05 02:01:59;;;;;;;3.98;1.80;;;;;;;12.49;100.00;99970.84;1654064;84;21545;-60
2022/10/05 02:04:38;;;;;;;3.10;1.60;;;;;;;12.55;100.00;99972.35;1651880;84;21443;-59
2022/10/05 02:07:12;;;;;;;2.75;1.65;;;;;;;12.56;100.00;99976.68;1666595;84;21427;-59
2022/10/05 02:09:48;;;;;;;1.50;1.40;;;;;;;12.61;100.00;99981.30;1665391;84;21055;-60
2022/10/05 02:12:20;;;;;;;3.58;1.65;;;;;;;12.49;100.00;99984.03;1653660;84;21624;-60
2022/10/05 02:14:51;;;;;;;5.80;2.02;;;;;;;12.52;100.00;99990.94;1657402;84;21061;-60
2022/10/05 02:17:25;;;;;;;4.25;2.00;;;;;;;12.53;100.00;99990.03;1651355;84;21143;-60
2022/10/05 02:20:06;;;;;;;3.65;1.98;;;;;;;12.47;100.00;100005.67;1655994;84;21470;-60
2022/10/05 02:22:37;;;;;;;4.95;1.90;;;;;;;12.41;100.00;100002.84;1654031;85;21010;-59
2022/10/05 02:25:12;;;;;;;4.10;1.85;;;;;;;12.49;100.00;100014.80;1656392;84;22018;-60
2022/10/05 02:28:14;;;;;;;4.12;1.80;;;;;;;12.46;100.00;100011.38;1649334;86;21490;-59
2022/10/05 02:30:56;;;;;;;1.52;1.42;;;;;;;12.46;100.00;100014.02;1638148;85;21506;-60
2022/10/05 02:33:29;;;;;;;2.70;1.80;;;;;;;12.48;100.00;100017.91;1657244;84;21481;-59
2022/10/05 02:36:03;;;;;;;3.15;1.75;;;;;;;12.44;100.00;100023.78;1657190;84;21569;-61
2022/10/05 02:39:16;;;;;;;2.67;1.72;;;;;;;12.40;100.00;100030.13;1655780;84;21848;-60
2022/10/05 02:42:23;;;;;;;2.15;1.95;;;;;;;12.36;100.00;100033.83;1649898;84;21594;-60
2022/10/05 02:46:27;;;;;;;4.40;1.70;;;;;;;11.78;100.00;100048.14;1794825;79;23070;-60
2022/10/05 02:49:38;;;;;;;2.67;1.67;;;;;;;12.33;100.00;100034.42;1768852;80;21553;-60
2022/10/05 02:52:23;;;;;;;4.15;1.50;;;;;;;12.42;100.00;100036.66;1684895;84;21816;-59
2022/10/05 02:55:46;;;;;;;1.80;1.57;;;;;;;12.42;100.00;100031.38;1684002;81;21589;-60
2022/10/05 02:58:17;;;;;;;2.62;1.67;;;;;;;12.43;100.00;100027.36;1741876;80;21127;-59
2022/10/05 03:01:01;;;;;;;2.40;1.77;;;;;;;12.33;100.00;100026.03;1763420;80;21439;-59
2022/10/05 03:03:55;;;;;;;2.55;1.67;;;;;;;12.36;100.00;100028.55;1765865;80;21572;-59
2022/10/05 03:06:32;;;;;;;2.15;1.75;;;;;;;12.38;100.00;100029.34;1759600;80;22136;-61
2022/10/05 03:09:06;;;;;;;1.80;1.70;;;;;;;12.35;100.00;100029.93;1753431;80;21522;-61
2022/10/05 03:12:06;;;;;;;3.80;2.02;;;;;;;12.35;100.00;100037.37;1724941;80;21097;-62
2022/10/05 03:14:48;;;;;;;;;;;;;;;12.35;100.00;100033.88;1765427;80;21427;-62
2022/10/05 03:17:20;;;;;;;3.52;1.70;;;;;;;12.31;100.00;100031.84;1764420;80;20496;-61
2022/10/05 03:19:58;;;;;;;3.67;1.98;;;;;;;12.32;100.00;100034.01;1755445;80;21533;-61
2022/10/05 03:22:49;;;;;;;6.80;1.70;;;;;;;12.30;100.00;100042.45;1755995;80;21550;-61
2022/10/05 03:25:32;;;;;;;2.67;1.98;;;;;;;12.30;100.00;100044.65;1764346;80;20987;-59
2022/10/05 03:28:43;;;;;;;3.22;1.80;;;;;;;12.30;100.00;100054.31;1742123;80;21456;-59
2022/10/05 03:31:37;;;;;;;4.40;2.10;;;;;;;12.26;100.00;100062.38;1740038;80;21537;-59
2022/10/05 03:34:11;;;;;;;1.92;1.80;;;;;;;12.17;100.00;100073.31;1761708;80;21919;-61
2022/10/05 03:37:17;;;;;;;1.95;1.85;;;;;;;12.22;100.00;100080.58;1753778;80;21499;-61
2022/10/05 03:40:17;;;;;;;2.27;1.72;;;;;;;12.24;100.00;100077.41;1759420;80;21415;-59
2022/10/05 03:43:12;;;;;;;3.62;2.20;;;;;;;12.20;100.00;100069.67;1767259;80;21490;-59
2022/10/05 03:46:07;;;;;;;2.40;1.70;;;;;;;12.26;100.00;100074.68;1750665;80;21559;-60
2022/10/05 03:49:07;;;;;;;3.27;1.90;;;;;;;12.29;100.00;100072.39;1749084;80;21716;-61
2022/10/05 03:51:40;;;;;;;3.08;1.92;;;;;;;12.28;100.00;100079.42;1750981;80;21585;-64
2022/10/05 03:54:34;;;;;;;2.05;1.85;;;;;;;12.16;100.00;100078.17;1707736;82;21504;-62
2022/10/05 03:57:06;;;;;;;4.45;2.10;;;;;;;12.07;100.00;100086.47;1751188;80;21436;-60
2022/10/05 04:00:01;;;;;;;2.30;2.05;;;;;;;12.05;100.00;100082.60;1753431;80;21018;-60
2022/10/05 04:02:40;;;;;;;4.35;2.10;;;;;;;12.02;100.00;100084.51;1748364;80;21812;-59
2022/10/05 04:05:17;;;;;;;3.45;2.22;;;;;;;12.03;100.00;100091.00;1755470;80;21431;-61
2022/10/05 04:07:47;;;;;;;;;;;;;;;12.03;100.00;100085.73;1759976;80;21459;-61
2022/10/05 04:10:26;;;;;;;4.22;1.55;;;;;;;11.99;100.00;100089.42;1733830;80;20435;-61
2022/10/05 04:13:24;;;;;;;2.35;1.57;;;;;;;12.07;100.00;100091.30;1751013;80;21471;-62
2022/10/05 04:16:00;;;;;;;2.60;1.75;;;;;;;12.13;100.00;100087.98;1740108;80;21841;-65
2022/10/05 04:18:44;;;;;;;2.25;1.62;;;;;;;12.17;100.00;100089.59;1749644;80;21494;-61
2022/10/05 04:21:22;;;;;;;2.20;1.60;;;;;;;12.12;100.00;100091.56;1749992;80;21581;-61
2022/10/05 04:24:17;;;;;;;2.85;2.02;;;;;;;12.17;100.00;100097.51;1747085;80;21570;-60
2022/10/05 04:26:54;;;;;;;2.85;1.57;;;;;;;12.15;100.00;100103.27;1743906;80;21428;-59
2022/10/05 04:29:39;;;;;;;2.67;2.07;;;;;;;12.14;100.00;100099.79;1759189;80;21808;-60
2022/10/05 04:32:14;;;;;;;3.05;1.80;;;;;;;12.17;100.00;100097.51;1741694;80;21453;-60
2022/10/05 04:34:58;;;;;;;2.55;1.60;;;;;;;12.12;100.00;100113.50;1709399;82;21506;-59
2022/10/05 04:38:03;;;;;;;2.20;1.57;;;;;;;12.16;100.00;100111.59;1731829;80;21065;-60
2022/10/05 04:41:14;;;;;;;2.37;1.67;;;;;;;12.18;100.00;100113.70;1752774;80;21639;-61
2022/10/05 04:44:34;;;;;;;2.22;1.90;;;;;;;12.20;100.00;100111.39;1722338;80;21867;-59
2022/10/05 04:47:25;;;;;;;4.53;2.05;;;;;;;12.14;100.00;100118.24;1751592;80;21049;-60
2022/10/05 04:50:13;;;;;;;4.35;2.10;;;;;;;12.10;100.00;100115.81;1755354;80;21533;-62
2022/10/05 04:53:06;;;;;;;3.20;1.85;;;;;;;12.12;100.00;100119.23;1732636;80;21472;-60
2022/10/05 04:56:01;;;;;;;5.45;2.08;;;;;;;12.18;100.00;100118.97;1760145;80;21526;-60
2022/10/05 04:58:40;;;;;;;3.17;2.02;;;;;;;12.22;100.00;100124.51;1736311;80;21748;-60
2022/10/05 05:01:36;;;;;;;4.22;1.85;;;;;;;12.25;100.00;100134.94;1741371;80;20963;-60
2022/10/05 05:04:46;;;;;;;2.52;1.75;;;;;;;12.31;100.00;100134.67;1757321;80;21547;-60
2022/10/05 05:07:40;;;;;;;2.98;2.10;;;;;;;12.42;100.00;100135.07;1742334;80;21898;-61
2022/10/05 05:10:40;;;;;;;1.82;1.70;;;;;;;12.38;100.00;100149.31;1744696;80;21491;-60
2022/10/05 05:13:35;;;;;;;4.37;1.82;;;;;;;12.35;100.00;100155.17;1745168;80;22064;-61
2022/10/05 05:16:26;;;;;;;3.58;1.80;;;;;;;12.39;100.00;100161.56;1745309;80;21518;-59
2022/10/05 05:19:12;;;;;;;2.55;1.87;;;;;;;12.50;100.00;100176.09;1745957;80;21026;-60
2022/10/05 05:22:17;;;;;;;5.08;1.65;;;;;;;12.56;100.00;100167.44;1750108;80;21451;-59
2022/10/05 05:25:03;;;;;;;4.45;1.70;;;;;;;12.60;100.00;100180.92;1745888;80;21054;-60
2022/10/05 05:27:50;;;;;;;3.70;1.90;;;;;;;12.66;100.00;100174.53;1743310;80;21823;-60
2022/10/05 05:30:21;;;;;;;2.02;1.75;;;;;;;12.72;100.00;100178.21;1744538;80;21501;-60
2022/10/05 05:33:06;;;;;;;2.35;1.60;;;;;;;12.71;100.00;100176.95;1746732;80;21010;-60
2022/10/05 05:36:12;;;;;;;2.00;1.90;;;;;;;12.75;100.00;100181.17;1693836;82;21766;-60
2022/10/05 05:39:13;;;;;;;4.67;2.00;;;;;;;12.71;100.00;100173.00;1754071;80;21573;-60
2022/10/05 05:42:26;;;;;;;3.47;1.40;;;;;;;12.69;100.00;100179.66;1749797;80;22076;-60
2022/10/05 05:44:55;;;;;;;1.60;1.50;;;;;;;12.82;100.00;100185.27;1751587;80;21486;-61
2022/10/05 05:47:36;;;;;;;2.08;1.80;;;;;;;12.87;100.00;100187.72;1734959;81;21631;-60
2022/10/05 05:50:26;;;;;;;2.62;1.32;;;;;;;12.97;100.00;100190.34;1760438;80;21444;-60
2022/10/05 05:53:11;;;;;;;1.35;1.25;;;;;;;13.12;100.00;100194.08;1760984;80;21794;-60
2022/10/05 05:55:46;;;;;;;1.65;1.52;;;;;;;13.11;100.00;100189.27;1768144;80;21820;-65
2022/10/05 05:58:37;;;;;;;1.92;1.82;;;;;;;13.08;100.00;100194.68;1760884;80;21554;-61
2022/10/05 06:01:10;;;;;;;1.65;1.50;;;;;;;12.99;100.00;100190.66;1716744;82;21416;-60
2022/10/05 06:03:46;;;;;;;5.22;1.65;;;;;;;13.04;100.00;100190.47;1729037;82;21561;-59
2022/10/05 06:06:16;;;;;;;4.45;1.50;;;;;;;13.11;100.00;100203.80;1728012;82;21006;-60
2022/10/05 06:08:57;;;;;;;1.70;1.60;;;;;;;13.10;100.00;100206.50;1729468;82;21827;-59
2022/10/05 06:11:36;;;;;;;;;;;;;;;13.16;100.00;100204.42;1730246;82;21407;-59
2022/10/05 06:14:17;;;;;;;3.72;1.50;;;;;;;13.14;100.00;100206.75;1722741;81;20464;-59
2022/10/05 06:17:05;;;;;;;2.27;1.37;;;;;;;13.08;100.00;100214.48;1720157;82;21499;-60
2022/10/05 06:19:32;;;;;;;2.27;1.80;;;;;;;13.02;100.00;100214.75;1729354;82;21555;-59
2022/10/05 06:22:29;;;;;;;2.02;1.30;;;;;;;13.10;100.00;100215.27;1725030;82;21835;-59
2022/10/05 06:25:14;;;;;;;4.97;1.55;;;;;;;13.15;100.00;100217.72;1667389;85;21930;-59
2022/10/05 06:28:12;;;;;;;2.03;1.47;;;;;;;13.15;100.00;100229.12;1754966;80;21968;-59
2022/10/05 06:30:55;;;;;;;2.40;1.87;;;;;;;13.27;100.00;100232.16;1761561;80;21470;-60
2022/10/05 06:34:01;;;;;;;3.25;1.60;;;;;;;13.35;100.00;100247.22;1770574;80;21605;-60
2022/10/05 06:36:53;;;;;;;1.92;1.72;;;;;;;13.32;100.00;100246.05;1739032;80;21733;-60
2022/10/05 06:39:42;;;;;;;1.57;1.42;;;;;;;13.35;100.00;100244.09;1738522;80;21693;-63
2022/10/05 06:42:30;;;;;;;1.87;1.70;;;;;;;13.39;100.00;100247.47;1715407;81;21598;-61
2022/10/05 06:45:33;;;;;;;1.77;1.40;;;;;;;13.48;100.00;100249.69;1721067;81;21543;-62
2022/10/05 06:48:37;;;;;;;2.30;1.47;;;;;;;13.58;100.00;100241.77;1667158;84;21577;-58
2022/10/05 06:51:26;;;;;;;3.20;1.77;;;;;;;13.63;100.00;100244.18;1610326;86;21826;-58
2022/10/05 06:54:28;;;;;;;3.27;1.42;;;;;;;13.63;100.00;100242.86;1736136;80;21743;-60
2022/10/05 06:57:35;;;;;;;5.25;1.50;;;;;;;13.60;100.00;100243.87;1712356;81;21558;-60
2022/10/05 07:00:19;;;;;;;2.17;1.50;;;;;;;13.62;100.00;100243.33;1738765;80;21627;-60
2022/10/05 07:02:58;;;;;;;1.22;1.12;;;;;;;13.72;100.00;100246.87;1741805;80;21088;-59
2022/10/05 07:05:53;;;;;;;1.77;1.40;;;;;;;13.75;100.00;100248.91;1751245;80;21874;-60
2022/10/05 07:08:52;;;;;;;3.70;1.80;;;;;;;13.81;100.00;100252.58;1736409;80;20969;-60
2022/10/05 07:12:09;;;;;;;3.80;1.60;;;;;;;13.86;100.00;100256.32;1639591;86;21514;-59
2022/10/05 07:14:54;;;;;;;5.33;1.45;;;;;;;13.83;100.00;100253.37;1658425;84;21566;-59
2022/10/05 07:17:54;;;;;;;3.25;1.70;;;;;;;13.80;100.00;100252.17;1669628;84;21545;-60
2022/10/05 07:20:34;;;;;;;2.85;1.67;;;;;;;13.77;100.00;100253.66;1620068;86;21891;-59
2022/10/05 07:23:43;;;;;;;2.72;1.37;;;;;;;13.85;100.00;100266.52;1655769;85;21015;-59
2022/10/05 07:26:35;;;;;;;2.12;1.57;;;;;;;13.91;100.00;100262.73;1649915;85;21562;-59
2022/10/05 07:29:28;;;;;;;2.30;1.40;;;;;;;13.96;100.00;100268.67;1657003;84;21471;-59
2022/10/05 07:32:20;;;;;;;1.52;1.42;;;;;;;14.04;100.00;100276.23;1650842;84;21620;-60
2022/10/05 07:37:53;;;;;;;2.10;1.30;;;;;;;14.02;100.00;100274.51;1647542;84;21850;-59
2022/10/05 07:37:54;;;;;;;1.50;1.12;;;;;;;14.08;100.00;100285.26;1645973;84;21137;-60
2022/10/05 07:40:50;;;;;;;4.15;1.52;;;;;;;14.07;100.00;100287.53;1654239;84;21014;-60
2022/10/05 07:43:43;;;;;;;2.65;1.15;;;;;;;14.12;100.00;100289.47;1656284;84;21546;-62
2022/10/05 07:46:37;;;;;;;3.52;1.25;;;;;;;14.19;100.00;100300.16;1658553;84;21518;-62
2022/10/05 07:49:40;;;;;;;2.25;1.30;;;;;;;14.26;100.00;100293.24;1652516;84;22526;-60
2022/10/05 07:52:13;;;;;;;5.78;1.30;;;;;;;14.41;100.00;100301.31;1634412;86;21434;-59
2022/10/05 07:55:06;;;;;;;1.75;1.12;;;;;;;14.49;100.00;100309.36;1604930;87;21027;-60
2022/10/05 07:57:47;;;;;;;3.65;1.60;;;;;;;14.48;100.00;100296.57;1660367;84;21504;-60
2022/10/05 08:00:23;;;;;;;2.25;1.30;;;;;;;14.44;100.00;100296.81;1663566;84;21587;-59
2022/10/05 08:03:02;;;;;;;3.40;1.52;;;;;;;14.46;100.00;100299.76;1658675;84;21810;-64
2022/10/05 08:05:31;;;;;;;4.42;1.45;;;;;;;14.40;100.00;100299.59;1653896;84;21478;-61
2022/10/05 08:08:12;;;;;;;3.22;1.45;;;;;;;14.40;100.00;100300.91;1659399;84;21567;-60
2022/10/05 08:10:51;;;;;;;1.45;1.25;;;;;;;14.52;100.00;100294.64;1659168;84;21594;-60
2022/10/05 08:13:36;;;;;;;2.95;1.70;;;;;;;14.66;100.00;100284.27;1695991;82;21152;-60
2022/10/05 08:16:05;;;;;;;3.62;1.40;;;;;;;14.67;100.00;100280.67;1701561;82;21537;-67
2022/10/05 08:19:09;;;;;;;2.42;1.52;;;;;;;14.58;100.00;100282.48;1709973;82;21438;-60
2022/10/05 08:21:53;;;;;;;3.95;1.35;;;;;;;14.59;100.00;100278.41;1664345;84;21464;-61
2022/10/05 08:24:42;;;;;;;2.27;1.27;;;;;;;14.58;100.00;100279.84;1663001;84;21549;-60
2022/10/05 08:27:26;;;;;;;1.15;1.05;;;;;;;14.81;100.00;100279.16;1701646;82;21512;-61
2022/10/05 08:30:03;;;;;;;2.42;1.40;;;;;;;14.88;100.00;100288.04;1700192;82;21852;-62
2022/10/05 08:32:42;;;;;;;1.15;1.05;;;;;;;14.97;100.00;100293.31;1697988;82;21537;-61
2022/10/05 08:35:34;;;;;;;1.72;1.37;;;;;;;15.04;100.00;100280.16;1702995;82;21585;-63
2022/10/05 08:38:00;;;;;;;4.80;1.45;;;;;;;15.16;100.00;100287.48;1695267;82;21530;-61
2022/10/05 08:41:08;;;;;;;1.90;1.30;;;;;;;15.32;100.00;100290.66;1696803;82;21582;-61
2022/10/05 08:44:15;;;;;;;1.98;1.37;;;;;;;15.41;100.00;100285.33;1698714;82;21826;-61
2022/10/05 08:47:05;;;;;;;4.37;1.22;;;;;;;15.38;100.00;100299.61;1663454;83;21535;-64
2022/10/05 08:49:51;;;;;;;3.02;1.30;;;;;;;15.36;100.00;100295.70;1633963;85;21612;-63
2022/10/05 08:52:30;;;;;;;1.10;1.00;;;;;;;15.51;100.00;100297.17;1659112;84;21535;-63
2022/10/05 08:55:33;;;;;;;4.97;1.30;;;;;;;15.63;100.00;100296.50;1642580;85;21656;-62
2022/10/05 08:58:44;;;;;;;2.12;0.85;;;;;;;15.56;100.00;100301.29;1700643;82;21731;-60
2022/10/05 09:01:47;;;;;;;1.87;1.25;;;;;;;15.59;100.00;100308.21;1693603;82;21530;-65
2022/10/05 09:04:47;;;;;;;4.92;1.22;;;;;;;15.61;100.00;100312.95;1693337;83;21032;-60
2022/10/05 09:07:53;;;;;;;2.10;1.05;;;;;;;15.65;100.00;100310.56;1700376;83;21593;-61
2022/10/05 09:10:54;;;;;;;2.02;1.45;;;;;;;15.53;100.00;100323.12;1693778;82;21017;-61
2022/10/05 09:13:41;;;;;;;3.83;1.20;;;;;;;15.42;100.00;100325.00;1690050;82;21780;-61
2022/10/05 09:16:43;;;;;;;2.25;1.30;;;;;;;15.42;100.00;100334.27;1672369;84;21424;-61
2022/10/05 09:19:51;;;;;;;1.57;1.02;;;;;;;15.56;100.00;100323.81;1668777;84;21564;-60
2022/10/05 09:22:45;;;;;;;1.20;1.07;;;;;;;15.73;100.00;100326.94;1643652;85;22172;-60
2022/10/05 09:25:38;;;;;;;2.05;1.25;;;;;;;15.76;100.00;100317.95;1700288;83;21577;-61
2022/10/05 09:28:33;;;;;;;2.70;0.90;;;;;;;15.73;100.00;100315.45;1672741;84;21543;-60
2022/10/05 09:31:32;;;;;;;1.22;1.00;;;;;;;15.70;100.00;100314.27;1669791;84;21073;-61
2022/10/05 09:34:16;;;;;;;3.25;0.93;;;;;;;15.86;100.00;100313.00;1693968;82;21605;-60
2022/10/05 09:37:05;;;;;;;4.12;1.25;;;;;;;15.95;100.00;100312.06;1682510;82;21535;-61
2022/10/05 09:39:59;;;;;;;1.65;1.15;;;;;;;16.08;100.00;100313.54;1697753;83;21493;-62
2022/10/05 09:42:43;;;;;;;5.10;1.35;;;;;;;16.00;100.00;100317.57;1687607;83;21837;-62
2022/10/05 09:45:38;;;;;;;3.00;1.40;;;;;;;16.02;100.00;100339.08;1699233;83;21601;-63
2022/10/05 09:48:46;;;;;;;1.22;1.10;;;;;;;16.04;100.00;100323.94;1691032;83;21605;-61
2022/10/05 09:51:25;;;;;;;1.22;0.70;;;;;;;16.19;100.00;100326.70;1692394;83;21613;-61
2022/10/05 09:54:24;;;;;;;2.98;1.35;;;;;;;16.50;100.00;100317.86;1696567;83;21562;-64
2022/10/05 09:57:22;;;;;;;1.50;1.07;;;;;;;16.65;100.00;100311.70;1688572;82;21506;-61
2022/10/05 10:00:24;;;;;;;2.37;0.78;;;;;;;16.54;100.00;100317.61;1696722;83;21549;-61
2022/10/05 10:03:31;;;;;;;1.37;0.95;;;;;;;16.44;100.00;100320.87;1694607;83;21561;-61
2022/10/05 10:06:30;;;;;;;1.85;1.20;;;;;;;16.28;100.00;100327.52;1688546;83;21427;-62
2022/10/05 10:09:26;;;;;;;1.92;1.10;;;;;;;16.25;100.00;100337.81;1693496;83;21563;-63
2022/10/05 10:12:38;;;;;;;2.05;1.15;;;;;;;16.11;100.00;100322.67;1685368;83;21825;-64
2022/10/05 10:15:47;;;;;;;2.92;1.35;;;;;;;15.94;100.00;100338.17;1666021;83;21549;-62
2022/10/05 10:18:27;;;;;;;2.17;1.45;;;;;;;15.85;100.00;100328.06;1669972;84;21558;-62
2022/10/05 10:21:28;;;;;;;2.27;1.10;;;;;;;15.96;100.00;100335.45;1679561;83;21534;-61
2022/10/05 10:24:41;;;;;;;0.82;0.82;;;;;;;16.14;100.00;100334.89;1630561;85;21422;-62
2022/10/05 10:27:54;;;;;;;2.80;0.90;;;;;;;16.48;100.00;100334.34;1678961;83;21973;-62
2022/10/05 10:31:01;;;;;;;3.10;1.27;;;;;;;16.71;100.00;100335.23;1665672;84;21519;-61
2022/10/05 10:33:54;;;;;;;1.32;1.07;;;;;;;16.73;99.99;100328.52;1627217;84;21618;-61
2022/10/05 10:36:44;;;;;;;1.22;1.12;;;;;;;16.63;100.00;100327.31;1662484;84;21570;-63
2022/10/05 10:39:44;;;;;;;1.90;1.20;;;;;;;16.66;100.00;100330.66;1665405;84;21536;-64
2022/10/05 10:42:45;;;;;;;3.50;1.20;;;;;;;16.68;100.00;100333.22;1684711;83;21503;-62
2022/10/05 10:45:48;;;;;;;1.35;0.80;;;;;;;16.77;99.68;100336.69;1661240;84;21629;-64
2022/10/05 10:48:32;;;;;;;2.50;1.25;;;;;;;16.71;97.17;100331.73;1662843;84;21545;-63
2022/10/05 10:51:47;;;;;;;4.05;1.12;;;;;;;16.56;97.22;100332.13;1663089;84;21604;-63
2022/10/05 10:54:48;;;;;;;2.22;1.37;;;;;;;16.44;98.14;100329.67;1663272;84;21532;-61
2022/10/05 10:57:36;;;;;;;1.27;1.17;;;;;;;16.41;99.68;100325.89;1642123;85;21864;-62
2022/10/05 11:00:23;;;;;;;1.25;1.10;;;;;;;16.47;100.00;100330.00;1634197;85;21550;-62
2022/10/05 11:03:18;;;;;;;0.85;0.70;;;;;;;16.50;97.62;100329.35;1657518;84;21557;-61
2022/10/05 11:06:16;;;;;;;2.47;1.20;;;;;;;16.48;95.43;100333.02;1670286;84;21466;-61
2022/10/05 11:09:24;;;;;;;1.47;0.78;;;;;;;16.46;95.40;100333.13;1661531;84;20993;-63
2022/10/05 11:12:27;;;;;;;1.17;1.07;;;;;;;16.50;96.49;100333.78;1660655;84;21098;-64
2022/10/05 11:15:33;;;;;;;2.47;1.02;;;;;;;16.37;95.73;100334.97;1659326;84;21045;-63
2022/10/05 11:18:15;;;;;;;2.10;0.95;;;;;;;16.34;95.72;100328.02;1664156;84;21112;-62
2022/10/05 11:21:29;;;;;;;2.92;1.00;;;;;;;16.33;97.42;100322.34;1659211;84;21087;-62
2022/10/05 11:24:41;;;;;;;3.83;1.10;;;;;;;16.34;96.93;100318.73;1653544;84;21037;-60
2022/10/05 11:27:33;;;;;;;1.47;1.00;;;;;;;16.35;96.62;100316.47;1552138;91;21922;-61
2022/10/05 11:30:46;;;;;;;0.85;0.85;;;;;;;16.34;95.91;100312.58;1560252;90;21578;-61
2022/10/05 11:33:54;;;;;;;1.00;0.95;;;;;;;16.30;93.88;100318.52;1635267;84;21656;-62
2022/10/05 11:36:55;;;;;;;2.10;1.15;;;;;;;16.30;94.00;100313.22;1653901;85;21460;-62
2022/10/05 11:39:44;;;;;;;2.10;0.90;;;;;;;16.20;93.59;100309.38;1629451;86;21556;-61
2022/10/05 11:42:39;;;;;;;0.70;0.70;;;;;;;16.24;94.31;100310.06;1663078;84;22184;-61
2022/10/05 11:45:25;;;;;;;1.87;1.20;;;;;;;16.25;94.27;100310.44;1664005;84;21426;-61
2022/10/05 11:48:19;;;;;;;1.82;1.30;;;;;;;16.17;94.14;100316.16;1632926;84;21537;-63
2022/10/05 11:51:18;;;;;;;2.25;1.52;;;;;;;16.04;94.34;100327.07;1622611;86;21525;-61
2022/10/05 11:54:24;;;;;;;1.40;1.30;;;;;;;15.98;94.99;100322.95;1629510;86;21557;-61
2022/10/05 11:57:11;;;;;;;1.67;1.30;;;;;;;15.95;95.38;100319.13;1630069;85;21844;-62
2022/10/05 11:59:44;;;;;;;;;;;;;;;16.01;95.87;100317.94;1628267;86;21562;-61
2022/10/05 12:02:44;;;;;;;0.90;0.85;;;;;;;15.98;95.12;100316.33;1598980;86;20456;-61
2022/10/05 12:06:07;;;;;;;1.40;1.00;;;;;;;15.84;95.82;100318.41;1614423;86;21551;-66
2022/10/05 12:08:48;;;;;;;3.42;1.20;;;;;;;15.81;95.80;100323.87;1614431;86;21540;-61
2022/10/05 12:11:52;;;;;;;1.30;1.20;;;;;;;15.87;95.83;100338.59;1616246;88;21532;-61
2022/10/05 12:14:37;;;;;;;1.02;1.00;;;;;;;15.75;95.30;100340.96;1608218;86;21465;-62
2022/10/05 12:17:29;;;;;;;1.65;1.12;;;;;;;15.76;95.73;100343.13;1611318;86;21521;-60
2022/10/05 12:20:08;;;;;;;2.62;0.90;;;;;;;15.72;95.32;100342.41;1614659;86;21471;-62
2022/10/05 12:22:42;;;;;;;1.32;1.12;;;;;;;15.73;95.99;100345.94;1612312;86;21503;-61
2022/10/05 12:25:30;;;;;;;1.62;0.98;;;;;;;15.68;95.58;100358.56;1631904;86;21875;-61
2022/10/05 12:28:02;;;;;;;;;;;;;;;15.69;95.88;100369.54;1613158;86;21433;-67
2022/10/05 12:30:52;;;;;;;1.45;1.05;;;;;;;15.74;94.75;100371.52;1614142;86;20564;-62
2022/10/05 12:33:46;;;;;;;1.80;1.02;;;;;;;15.77;96.78;100366.07;1594940;86;21656;-61
2022/10/05 12:36:43;;;;;;;1.52;1.12;;;;;;;15.79;97.60;100369.97;1619518;86;21652;-60
2022/10/05 12:39:30;;;;;;;4.78;1.10;;;;;;;15.87;97.74;100371.73;1623003;86;22089;-61
2022/10/05 12:42:18;;;;;;;2.10;1.20;;;;;;;15.99;99.80;100374.19;1625553;86;28639;-61
2022/10/05 12:45:44;;;;;;;2.37;1.25;;;;;;;16.13;100.00;100373.84;1627598;86;28760;-61
2022/10/05 12:48:48;;;;;;;1.70;1.30;;;;;;;16.22;99.37;100380.90;1622514;86;21566;-61
2022/10/05 12:51:38;;;;;;;2.27;1.10;;;;;;;16.16;97.58;100375.45;1626099;86;21580;-61
2022/10/05 12:54:36;;;;;;;3.67;1.70;;;;;;;16.10;96.54;100383.28;1670689;84;21811;-61
2022/10/05 12:57:12;;;;;;;2.12;1.40;;;;;;;16.05;96.90;100383.14;1612082;86;25772;-60
2022/10/05 13:00:05;;;;;;;0.98;0.70;;;;;;;16.06;96.97;100382.22;1625653;86;21466;-60
2022/10/05 13:02:52;;;;;;;2.33;1.12;;;;;;;16.01;96.95;100377.62;1617348;86;21677;-59
2022/10/05 13:05:47;;;;;;;1.20;1.07;;;;;;;16.04;96.80;100381.44;1665064;84;21587;-59
2022/10/05 13:09:11;;;;;;;2.22;1.07;;;;;;;16.00;96.52;100382.08;1623906;86;21526;-59